sensor_id;sensor_type;location;lat;lon;timestamp;P1;durP1;ratioP1;P2;durP2;ratioP2
21886;SDS011;11108;49.988;8.182;2022-12-13T00:01:47;4.80;;;4.40;;
21886;SDS011;11108;49.988;8.182;2022-12-13T00:04:14;5.10;;;4.67;;
21886;SDS011;11108;49.988;8.182;2022-12-13T00:06:39;5.17;;;4.77;;
21886;SDS011;11108;49.988;8.182;2022-12-13T00:09:04;4.80;;;4.40;;
21886;SDS011;11108;49.988;8.182;2022-12-13T00:11:30;4.87;;;4.47;;
21886;SDS011;11108;49.988;8.182;2022-12-13T00:13:55;4.33;;;4.03;;
21886;SDS011;11108;49.988;8.182;2022-12-13T00:16:22;5.13;;;4.63;;
21886;SDS011;11108;49.988;8.182;2022-12-13T00:18:48;4.90;;;4.50;;
21886;SDS011;11108;49.988;8.182;2022-12-13T00:21:14;4.30;;;4.00;;
21886;SDS011;11108;49.988;8.182;2022-12-13T00:23:40;4.50;;;4.17;;
21886;SDS011;11108;49.988;8.182;2022-12-13T00:26:06;5.00;;;4.50;;
21886;SDS011;11108;49.988;8.182;2022-12-13T00:28:32;4.10;;;3.80;;
21886;SDS011;11108;49.988;8.182;2022-12-13T00:30:58;4.80;;;4.40;;
21886;SDS011;11108;49.988;8.182;2022-12-13T00:33:23;4.80;;;4.40;;
21886;SDS011;11108;49.988;8.182;2022-12-13T00:35:48;4.70;;;4.30;;
21886;SDS011;11108;49.988;8.182;2022-12-13T00:38:13;4.50;;;4.10;;
21886;SDS011;11108;49.988;8.182;2022-12-13T00:40:39;5.00;;;4.60;;
21886;SDS011;11108;49.988;8.182;2022-12-13T00:43:04;5.07;;;4.43;;
21886;SDS011;11108;49.988;8.182;2022-12-13T00:45:29;5.23;;;4.77;;
21886;SDS011;11108;49.988;8.182;2022-12-13T00:47:54;5.07;;;4.57;;
21886;SDS011;11108;49.988;8.182;2022-12-13T00:50:19;5.10;;;4.70;;
21886;SDS011;11108;49.988;8.182;2022-12-13T00:52:45;4.57;;;4.17;;
21886;SDS011;11108;49.988;8.182;2022-12-13T00:55:10;4.67;;;4.27;;
21886;SDS011;11108;49.988;8.182;2022-12-13T00:57:35;4.80;;;4.30;;
21886;SDS011;11108;49.988;8.182;2022-12-13T01:00:00;5.13;;;4.60;;
21886;SDS011;11108;49.988;8.182;2022-12-13T01:02:25;4.23;;;3.83;;
21886;SDS011;11108;49.988;8.182;2022-12-13T01:04:51;4.70;;;4.30;;
21886;SDS011;11108;49.988;8.182;2022-12-13T01:07:16;5.00;;;4.50;;
21886;SDS011;11108;49.988;8.182;2022-12-13T01:09:41;5.00;;;4.60;;
21886;SDS011;11108;49.988;8.182;2022-12-13T01:12:06;4.93;;;4.53;;
21886;SDS011;11108;49.988;8.182;2022-12-13T01:14:35;4.30;;;4.00;;
21886;SDS011;11108;49.988;8.182;2022-12-13T01:17:00;4.63;;;4.27;;
21886;SDS011;11108;49.988;8.182;2022-12-13T01:19:26;4.97;;;4.57;;
21886;SDS011;11108;49.988;8.182;2022-12-13T01:21:55;5.50;;;4.67;;
21886;SDS011;11108;49.988;8.182;2022-12-13T01:24:20;5.03;;;4.53;;
21886;SDS011;11108;49.988;8.182;2022-12-13T01:26:48;4.40;;;4.00;;
21886;SDS011;11108;49.988;8.182;2022-12-13T01:29:14;4.63;;;4.23;;
21886;SDS011;11108;49.988;8.182;2022-12-13T01:31:39;4.73;;;4.33;;
21886;SDS011;11108;49.988;8.182;2022-12-13T01:34:06;4.60;;;4.27;;
21886;SDS011;11108;49.988;8.182;2022-12-13T01:36:34;4.57;;;4.27;;
21886;SDS011;11108;49.988;8.182;2022-12-13T01:38:59;4.70;;;4.30;;
21886;SDS011;11108;49.988;8.182;2022-12-13T01:41:25;4.23;;;3.90;;
21886;SDS011;11108;49.988;8.182;2022-12-13T01:43:52;4.97;;;4.40;;
21886;SDS011;11108;49.988;8.182;2022-12-13T01:46:18;5.23;;;4.70;;
21886;SDS011;11108;49.988;8.182;2022-12-13T01:48:45;5.13;;;4.43;;
21886;SDS011;11108;49.988;8.182;2022-12-13T01:51:11;4.47;;;4.13;;
21886;SDS011;11108;49.988;8.182;2022-12-13T01:53:39;5.47;;;4.97;;
21886;SDS011;11108;49.988;8.182;2022-12-13T01:56:06;4.50;;;4.10;;
21886;SDS011;11108;49.988;8.182;2022-12-13T01:58:33;5.47;;;4.97;;
21886;SDS011;11108;49.988;8.182;2022-12-13T02:00:59;4.63;;;4.23;;
21886;SDS011;11108;49.988;8.182;2022-12-13T02:03:25;4.53;;;4.13;;
21886;SDS011;11108;49.988;8.182;2022-12-13T02:06:06;5.70;;;5.20;;
21886;SDS011;11108;49.988;8.182;2022-12-13T02:08:34;4.87;;;4.47;;
21886;SDS011;11108;49.988;8.182;2022-12-13T02:11:00;4.77;;;4.37;;
21886;SDS011;11108;49.988;8.182;2022-12-13T02:13:27;4.50;;;4.10;;
21886;SDS011;11108;49.988;8.182;2022-12-13T02:18:20;4.97;;;4.40;;
21886;SDS011;11108;49.988;8.182;2022-12-13T02:20:55;5.57;;;5.00;;
21886;SDS011;11108;49.988;8.182;2022-12-13T02:26:01;4.70;;;4.30;;
21886;SDS011;11108;49.988;8.182;2022-12-13T02:31:12;4.83;;;4.43;;
21886;SDS011;11108;49.988;8.182;2022-12-13T02:34:00;4.53;;;4.13;;
21886;SDS011;11108;49.988;8.182;2022-12-13T02:36:27;4.40;;;4.10;;
21886;SDS011;11108;49.988;8.182;2022-12-13T02:38:57;4.97;;;4.47;;
21886;SDS011;11108;49.988;8.182;2022-12-13T02:41:34;5.00;;;4.60;;
21886;SDS011;11108;49.988;8.182;2022-12-13T02:46:34;4.80;;;4.40;;
21886;SDS011;11108;49.988;8.182;2022-12-13T02:49:01;4.20;;;3.83;;
21886;SDS011;11108;49.988;8.182;2022-12-13T02:51:27;4.40;;;4.00;;
21886;SDS011;11108;49.988;8.182;2022-12-13T02:53:52;5.13;;;4.73;;
21886;SDS011;11108;49.988;8.182;2022-12-13T02:56:18;4.60;;;4.20;;
21886;SDS011;11108;49.988;8.182;2022-12-13T02:58:47;4.60;;;4.23;;
21886;SDS011;11108;49.988;8.182;2022-12-13T03:09:29;5.00;;;4.50;;
21886;SDS011;11108;49.988;8.182;2022-12-13T03:12:09;4.87;;;4.50;;
21886;SDS011;11108;49.988;8.182;2022-12-13T03:14:56;4.57;;;4.17;;
21886;SDS011;11108;49.988;8.182;2022-12-13T03:17:22;4.90;;;4.50;;
21886;SDS011;11108;49.988;8.182;2022-12-13T03:19:52;4.23;;;3.93;;
21886;SDS011;11108;49.988;8.182;2022-12-13T03:22:18;4.10;;;3.80;;
21886;SDS011;11108;49.988;8.182;2022-12-13T03:24:43;5.03;;;4.53;;
21886;SDS011;11108;49.988;8.182;2022-12-13T03:27:09;5.03;;;4.63;;
21886;SDS011;11108;49.988;8.182;2022-12-13T03:29:34;4.50;;;4.20;;
21886;SDS011;11108;49.988;8.182;2022-12-13T03:31:59;4.90;;;4.50;;
21886;SDS011;11108;49.988;8.182;2022-12-13T03:34:24;4.83;;;4.43;;
21886;SDS011;11108;49.988;8.182;2022-12-13T03:36:50;4.90;;;4.43;;
21886;SDS011;11108;49.988;8.182;2022-12-13T03:39:16;4.67;;;4.27;;
21886;SDS011;11108;49.988;8.182;2022-12-13T03:41:41;4.73;;;4.20;;
21886;SDS011;11108;49.988;8.182;2022-12-13T03:44:06;4.30;;;4.00;;
21886;SDS011;11108;49.988;8.182;2022-12-13T03:46:33;4.20;;;3.90;;
21886;SDS011;11108;49.988;8.182;2022-12-13T03:48:58;4.37;;;4.07;;
21886;SDS011;11108;49.988;8.182;2022-12-13T03:51:23;4.63;;;4.23;;
21886;SDS011;11108;49.988;8.182;2022-12-13T03:53:49;4.80;;;4.40;;
21886;SDS011;11108;49.988;8.182;2022-12-13T03:56:14;4.60;;;4.20;;
21886;SDS011;11108;49.988;8.182;2022-12-13T03:58:39;4.87;;;4.43;;
21886;SDS011;11108;49.988;8.182;2022-12-13T04:01:07;4.10;;;3.80;;
21886;SDS011;11108;49.988;8.182;2022-12-13T04:03:33;4.47;;;4.17;;
21886;SDS011;11108;49.988;8.182;2022-12-13T04:05:58;4.03;;;3.73;;
21886;SDS011;11108;49.988;8.182;2022-12-13T04:08:23;4.70;;;4.30;;
21886;SDS011;11108;49.988;8.182;2022-12-13T04:10:48;4.17;;;3.87;;
21886;SDS011;11108;49.988;8.182;2022-12-13T04:13:14;5.70;;;5.10;;
21886;SDS011;11108;49.988;8.182;2022-12-13T04:15:57;4.50;;;4.10;;
21886;SDS011;11108;49.988;8.182;2022-12-13T04:18:23;4.77;;;4.37;;
21886;SDS011;11108;49.988;8.182;2022-12-13T04:20:48;4.40;;;4.00;;
21886;SDS011;11108;49.988;8.182;2022-12-13T04:23:13;4.60;;;4.23;;
21886;SDS011;11108;49.988;8.182;2022-12-13T04:25:39;4.80;;;4.40;;
21886;SDS011;11108;49.988;8.182;2022-12-13T04:28:05;4.63;;;4.23;;
21886;SDS011;11108;49.988;8.182;2022-12-13T04:30:30;4.60;;;4.30;;
21886;SDS011;11108;49.988;8.182;2022-12-13T04:32:55;4.97;;;4.57;;
21886;SDS011;11108;49.988;8.182;2022-12-13T04:35:21;4.40;;;4.10;;
21886;SDS011;11108;49.988;8.182;2022-12-13T04:37:46;4.70;;;4.30;;
21886;SDS011;11108;49.988;8.182;2022-12-13T04:40:11;4.50;;;4.10;;
21886;SDS011;11108;49.988;8.182;2022-12-13T04:42:36;4.57;;;4.27;;
21886;SDS011;11108;49.988;8.182;2022-12-13T04:45:02;4.73;;;4.33;;
21886;SDS011;11108;49.988;8.182;2022-12-13T04:47:27;4.63;;;4.27;;
21886;SDS011;11108;49.988;8.182;2022-12-13T04:49:52;5.13;;;4.73;;
21886;SDS011;11108;49.988;8.182;2022-12-13T04:52:18;4.77;;;4.37;;
21886;SDS011;11108;49.988;8.182;2022-12-13T04:54:43;4.80;;;4.40;;
21886;SDS011;11108;49.988;8.182;2022-12-13T04:57:09;4.37;;;3.97;;
21886;SDS011;11108;49.988;8.182;2022-12-13T04:59:35;4.67;;;4.27;;
21886;SDS011;11108;49.988;8.182;2022-12-13T05:02:00;4.20;;;3.80;;
21886;SDS011;11108;49.988;8.182;2022-12-13T05:04:26;4.57;;;4.20;;
21886;SDS011;11108;49.988;8.182;2022-12-13T05:06:51;4.67;;;4.27;;
21886;SDS011;11108;49.988;8.182;2022-12-13T05:09:16;4.10;;;3.80;;
21886;SDS011;11108;49.988;8.182;2022-12-13T05:11:41;3.97;;;3.67;;
21886;SDS011;11108;49.988;8.182;2022-12-13T05:14:06;4.87;;;4.47;;
21886;SDS011;11108;49.988;8.182;2022-12-13T05:16:32;4.23;;;3.93;;
21886;SDS011;11108;49.988;8.182;2022-12-13T05:18:57;4.50;;;4.20;;
21886;SDS011;11108;49.988;8.182;2022-12-13T05:21:22;4.97;;;4.57;;
21886;SDS011;11108;49.988;8.182;2022-12-13T05:23:47;4.30;;;4.00;;
21886;SDS011;11108;49.988;8.182;2022-12-13T05:26:12;4.00;;;3.70;;
21886;SDS011;11108;49.988;8.182;2022-12-13T05:28:38;4.27;;;3.97;;
21886;SDS011;11108;49.988;8.182;2022-12-13T05:31:07;4.67;;;4.33;;
21886;SDS011;11108;49.988;8.182;2022-12-13T05:33:33;4.03;;;3.73;;
21886;SDS011;11108;49.988;8.182;2022-12-13T05:35:58;4.23;;;3.87;;
21886;SDS011;11108;49.988;8.182;2022-12-13T05:38:23;4.20;;;3.90;;
21886;SDS011;11108;49.988;8.182;2022-12-13T05:40:48;3.93;;;3.63;;
21886;SDS011;11108;49.988;8.182;2022-12-13T05:43:14;3.83;;;3.53;;
21886;SDS011;11108;49.988;8.182;2022-12-13T05:45:39;4.30;;;3.93;;
21886;SDS011;11108;49.988;8.182;2022-12-13T05:48:04;4.37;;;4.00;;
21886;SDS011;11108;49.988;8.182;2022-12-13T05:50:29;3.90;;;3.60;;
21886;SDS011;11108;49.988;8.182;2022-12-13T05:52:54;3.97;;;3.67;;
21886;SDS011;11108;49.988;8.182;2022-12-13T05:55:20;4.20;;;3.90;;
21886;SDS011;11108;49.988;8.182;2022-12-13T05:57:45;3.90;;;3.70;;
21886;SDS011;11108;49.988;8.182;2022-12-13T06:00:10;4.30;;;3.90;;
21886;SDS011;11108;49.988;8.182;2022-12-13T06:02:36;4.10;;;3.70;;
21886;SDS011;11108;49.988;8.182;2022-12-13T06:05:01;3.80;;;3.50;;
21886;SDS011;11108;49.988;8.182;2022-12-13T06:07:27;3.93;;;3.70;;
21886;SDS011;11108;49.988;8.182;2022-12-13T06:09:52;4.10;;;3.80;;
21886;SDS011;11108;49.988;8.182;2022-12-13T06:12:17;4.43;;;4.13;;
21886;SDS011;11108;49.988;8.182;2022-12-13T06:14:42;4.30;;;3.90;;
21886;SDS011;11108;49.988;8.182;2022-12-13T06:17:07;4.60;;;4.20;;
21886;SDS011;11108;49.988;8.182;2022-12-13T06:19:33;3.77;;;3.47;;
21886;SDS011;11108;49.988;8.182;2022-12-13T06:21:58;3.70;;;3.40;;
21886;SDS011;11108;49.988;8.182;2022-12-13T06:24:23;4.10;;;3.80;;
21886;SDS011;11108;49.988;8.182;2022-12-13T06:26:49;3.77;;;3.53;;
21886;SDS011;11108;49.988;8.182;2022-12-13T06:29:15;4.07;;;3.77;;
21886;SDS011;11108;49.988;8.182;2022-12-13T06:31:40;4.10;;;3.80;;
21886;SDS011;11108;49.988;8.182;2022-12-13T06:34:05;3.53;;;3.33;;
21886;SDS011;11108;49.988;8.182;2022-12-13T06:36:30;3.63;;;3.43;;
21886;SDS011;11108;49.988;8.182;2022-12-13T06:38:56;3.80;;;3.50;;
21886;SDS011;11108;49.988;8.182;2022-12-13T06:41:21;3.50;;;3.20;;
21886;SDS011;11108;49.988;8.182;2022-12-13T06:43:46;4.23;;;3.83;;
21886;SDS011;11108;49.988;8.182;2022-12-13T06:46:12;4.00;;;3.70;;
21886;SDS011;11108;49.988;8.182;2022-12-13T06:48:37;3.90;;;3.60;;
21886;SDS011;11108;49.988;8.182;2022-12-13T06:51:04;4.07;;;3.50;;
21886;SDS011;11108;49.988;8.182;2022-12-13T06:53:30;4.20;;;3.80;;
21886;SDS011;11108;49.988;8.182;2022-12-13T06:55:56;3.70;;;3.40;;
21886;SDS011;11108;49.988;8.182;2022-12-13T06:58:21;3.40;;;3.20;;
21886;SDS011;11108;49.988;8.182;2022-12-13T07:00:46;3.50;;;3.20;;
21886;SDS011;11108;49.988;8.182;2022-12-13T07:03:12;3.60;;;3.33;;
21886;SDS011;11108;49.988;8.182;2022-12-13T07:05:37;4.30;;;3.90;;
21886;SDS011;11108;49.988;8.182;2022-12-13T07:08:03;4.07;;;3.67;;
21886;SDS011;11108;49.988;8.182;2022-12-13T07:10:28;4.53;;;4.00;;
21886;SDS011;11108;49.988;8.182;2022-12-13T07:12:53;3.80;;;3.50;;
21886;SDS011;11108;49.988;8.182;2022-12-13T07:15:18;4.23;;;3.73;;
21886;SDS011;11108;49.988;8.182;2022-12-13T07:17:44;3.80;;;3.60;;
21886;SDS011;11108;49.988;8.182;2022-12-13T07:20:12;3.90;;;3.60;;
21886;SDS011;11108;49.988;8.182;2022-12-13T07:22:39;4.33;;;3.80;;
21886;SDS011;11108;49.988;8.182;2022-12-13T07:25:05;4.13;;;3.83;;
21886;SDS011;11108;49.988;8.182;2022-12-13T07:27:30;4.50;;;4.10;;
21886;SDS011;11108;49.988;8.182;2022-12-13T07:29:55;4.13;;;3.83;;
21886;SDS011;11108;49.988;8.182;2022-12-13T07:32:21;3.93;;;3.63;;
21886;SDS011;11108;49.988;8.182;2022-12-13T07:34:47;4.27;;;3.97;;
21886;SDS011;11108;49.988;8.182;2022-12-13T07:37:12;3.63;;;3.33;;
21886;SDS011;11108;49.988;8.182;2022-12-13T07:39:37;4.07;;;3.67;;
21886;SDS011;11108;49.988;8.182;2022-12-13T07:42:02;3.73;;;3.43;;
21886;SDS011;11108;49.988;8.182;2022-12-13T07:44:27;4.07;;;3.77;;
21886;SDS011;11108;49.988;8.182;2022-12-13T07:46:53;4.17;;;3.23;;
21886;SDS011;11108;49.988;8.182;2022-12-13T07:49:18;3.67;;;3.37;;
21886;SDS011;11108;49.988;8.182;2022-12-13T07:51:44;3.53;;;3.27;;
21886;SDS011;11108;49.988;8.182;2022-12-13T07:54:09;4.13;;;3.70;;
21886;SDS011;11108;49.988;8.182;2022-12-13T07:56:34;4.40;;;3.70;;
21886;SDS011;11108;49.988;8.182;2022-12-13T07:59:00;3.87;;;3.57;;
21886;SDS011;11108;49.988;8.182;2022-12-13T08:01:25;4.00;;;3.70;;
21886;SDS011;11108;49.988;8.182;2022-12-13T08:03:50;4.43;;;3.43;;
21886;SDS011;11108;49.988;8.182;2022-12-13T08:06:15;3.90;;;3.53;;
21886;SDS011;11108;49.988;8.182;2022-12-13T08:08:43;3.77;;;3.47;;
21886;SDS011;11108;49.988;8.182;2022-12-13T08:11:09;4.10;;;3.70;;
21886;SDS011;11108;49.988;8.182;2022-12-13T08:13:35;3.93;;;3.63;;
21886;SDS011;11108;49.988;8.182;2022-12-13T08:16:01;4.57;;;4.00;;
21886;SDS011;11108;49.988;8.182;2022-12-13T08:18:27;3.63;;;3.43;;
21886;SDS011;11108;49.988;8.182;2022-12-13T08:20:57;3.60;;;3.40;;
21886;SDS011;11108;49.988;8.182;2022-12-13T08:23:22;4.13;;;3.73;;
21886;SDS011;11108;49.988;8.182;2022-12-13T08:25:54;5.47;;;3.30;;
21886;SDS011;11108;49.988;8.182;2022-12-13T08:28:19;4.00;;;3.57;;
21886;SDS011;11108;49.988;8.182;2022-12-13T08:30:44;5.70;;;3.43;;
21886;SDS011;11108;49.988;8.182;2022-12-13T08:33:10;4.77;;;3.70;;
21886;SDS011;11108;49.988;8.182;2022-12-13T08:35:35;4.30;;;3.63;;
21886;SDS011;11108;49.988;8.182;2022-12-13T08:38:00;3.63;;;3.07;;
21886;SDS011;11108;49.988;8.182;2022-12-13T08:40:26;4.80;;;3.70;;
21886;SDS011;11108;49.988;8.182;2022-12-13T08:42:53;3.27;;;3.03;;
21886;SDS011;11108;49.988;8.182;2022-12-13T08:45:18;3.60;;;3.33;;
21886;SDS011;11108;49.988;8.182;2022-12-13T08:47:44;4.30;;;3.23;;
21886;SDS011;11108;49.988;8.182;2022-12-13T08:50:09;4.30;;;3.80;;
21886;SDS011;11108;49.988;8.182;2022-12-13T08:52:34;5.17;;;3.70;;
21886;SDS011;11108;49.988;8.182;2022-12-13T08:55:00;6.30;;;4.03;;
21886;SDS011;11108;49.988;8.182;2022-12-13T08:57:25;7.93;;;4.27;;
21886;SDS011;11108;49.988;8.182;2022-12-13T08:59:50;10.27;;;4.37;;
21886;SDS011;11108;49.988;8.182;2022-12-13T09:02:15;9.50;;;4.00;;
21886;SDS011;11108;49.988;8.182;2022-12-13T09:04:41;7.17;;;4.23;;
21886;SDS011;11108;49.988;8.182;2022-12-13T09:07:06;9.33;;;4.17;;
21886;SDS011;11108;49.988;8.182;2022-12-13T09:09:31;7.17;;;5.13;;
21886;SDS011;11108;49.988;8.182;2022-12-13T09:11:57;6.90;;;4.57;;
21886;SDS011;11108;49.988;8.182;2022-12-13T09:14:22;9.40;;;4.73;;
21886;SDS011;11108;49.988;8.182;2022-12-13T09:16:47;6.83;;;4.77;;
21886;SDS011;11108;49.988;8.182;2022-12-13T09:19:12;7.53;;;4.30;;
21886;SDS011;11108;49.988;8.182;2022-12-13T09:21:37;6.53;;;4.10;;
21886;SDS011;11108;49.988;8.182;2022-12-13T09:24:03;5.83;;;3.63;;
21886;SDS011;11108;49.988;8.182;2022-12-13T09:26:28;4.07;;;3.67;;
21886;SDS011;11108;49.988;8.182;2022-12-13T09:28:53;6.27;;;4.03;;
21886;SDS011;11108;49.988;8.182;2022-12-13T09:31:19;4.87;;;3.57;;
21886;SDS011;11108;49.988;8.182;2022-12-13T09:33:45;4.50;;;3.97;;
21886;SDS011;11108;49.988;8.182;2022-12-13T09:36:12;6.53;;;4.20;;
21886;SDS011;11108;49.988;8.182;2022-12-13T09:38:37;4.47;;;3.50;;
21886;SDS011;11108;49.988;8.182;2022-12-13T09:41:07;4.17;;;3.37;;
21886;SDS011;11108;49.988;8.182;2022-12-13T09:43:35;4.77;;;3.50;;
21886;SDS011;11108;49.988;8.182;2022-12-13T09:46:03;5.00;;;4.03;;
21886;SDS011;11108;49.988;8.182;2022-12-13T09:48:29;7.43;;;4.23;;
21886;SDS011;11108;49.988;8.182;2022-12-13T09:50:54;4.13;;;3.73;;
21886;SDS011;11108;49.988;8.182;2022-12-13T09:53:19;4.67;;;3.70;;
21886;SDS011;11108;49.988;8.182;2022-12-13T09:55:46;3.50;;;3.20;;
21886;SDS011;11108;49.988;8.182;2022-12-13T09:58:16;4.97;;;4.00;;
21886;SDS011;11108;49.988;8.182;2022-12-13T10:00:44;4.73;;;3.57;;
21886;SDS011;11108;49.988;8.182;2022-12-13T10:03:13;4.10;;;3.70;;
21886;SDS011;11108;49.988;8.182;2022-12-13T10:05:40;4.50;;;4.10;;
21886;SDS011;11108;49.988;8.182;2022-12-13T10:08:11;4.20;;;3.80;;
21886;SDS011;11108;49.988;8.182;2022-12-13T10:10:38;3.80;;;3.50;;
21886;SDS011;11108;49.988;8.182;2022-12-13T10:15:41;4.30;;;3.57;;
21886;SDS011;11108;49.988;8.182;2022-12-13T10:18:07;4.83;;;3.93;;
21886;SDS011;11108;49.988;8.182;2022-12-13T10:20:34;3.67;;;3.37;;
21886;SDS011;11108;49.988;8.182;2022-12-13T10:23:00;4.37;;;3.50;;
21886;SDS011;11108;49.988;8.182;2022-12-13T10:28:09;4.67;;;3.47;;
21886;SDS011;11108;49.988;8.182;2022-12-13T10:30:39;4.67;;;3.63;;
21886;SDS011;11108;49.988;8.182;2022-12-13T10:33:05;3.73;;;3.33;;
21886;SDS011;11108;49.988;8.182;2022-12-13T10:37:59;4.13;;;3.33;;
21886;SDS011;11108;49.988;8.182;2022-12-13T10:40:32;3.73;;;3.23;;
21886;SDS011;11108;49.988;8.182;2022-12-13T10:45:30;4.40;;;3.47;;
21886;SDS011;11108;49.988;8.182;2022-12-13T10:47:55;3.77;;;3.40;;
21886;SDS011;11108;49.988;8.182;2022-12-13T10:50:25;5.03;;;3.60;;
21886;SDS011;11108;49.988;8.182;2022-12-13T10:52:50;3.50;;;3.30;;
21886;SDS011;11108;49.988;8.182;2022-12-13T10:57:51;4.30;;;2.90;;
21886;SDS011;11108;49.988;8.182;2022-12-13T11:03:02;4.53;;;3.60;;
21886;SDS011;11108;49.988;8.182;2022-12-13T11:05:28;4.03;;;3.23;;
21886;SDS011;11108;49.988;8.182;2022-12-13T11:07:54;3.93;;;3.60;;
21886;SDS011;11108;49.988;8.182;2022-12-13T11:12:45;4.30;;;3.10;;
21886;SDS011;11108;49.988;8.182;2022-12-13T11:15:18;3.37;;;3.07;;
21886;SDS011;11108;49.988;8.182;2022-12-13T11:17:49;4.20;;;3.60;;
21886;SDS011;11108;49.988;8.182;2022-12-13T11:20:20;5.43;;;4.03;;
21886;SDS011;11108;49.988;8.182;2022-12-13T11:22:45;4.50;;;3.13;;
21886;SDS011;11108;49.988;8.182;2022-12-13T11:30:44;4.37;;;3.67;;
21886;SDS011;11108;49.988;8.182;2022-12-13T11:35:45;4.63;;;3.70;;
21886;SDS011;11108;49.988;8.182;2022-12-13T11:38:59;4.27;;;3.30;;
21886;SDS011;11108;49.988;8.182;2022-12-13T11:41:14;3.80;;;3.37;;
21886;SDS011;11108;49.988;8.182;2022-12-13T11:46:19;3.63;;;3.33;;
21886;SDS011;11108;49.988;8.182;2022-12-13T11:51:13;4.37;;;3.93;;
21886;SDS011;11108;49.988;8.182;2022-12-13T11:56:21;5.40;;;3.00;;
21886;SDS011;11108;49.988;8.182;2022-12-13T12:01:26;3.73;;;3.30;;
21886;SDS011;11108;49.988;8.182;2022-12-13T12:03:56;4.60;;;3.40;;
21886;SDS011;11108;49.988;8.182;2022-12-13T12:06:32;3.67;;;3.20;;
21886;SDS011;11108;49.988;8.182;2022-12-13T12:08:59;5.03;;;3.60;;
21886;SDS011;11108;49.988;8.182;2022-12-13T12:11:29;5.73;;;3.10;;
21886;SDS011;11108;49.988;8.182;2022-12-13T12:13:58;3.10;;;2.90;;
21886;SDS011;11108;49.988;8.182;2022-12-13T12:16:33;3.93;;;3.60;;
21886;SDS011;11108;49.988;8.182;2022-12-13T12:19:00;6.07;;;3.17;;
21886;SDS011;11108;49.988;8.182;2022-12-13T12:21:35;5.23;;;3.50;;
21886;SDS011;11108;49.988;8.182;2022-12-13T12:26:51;3.27;;;3.00;;
21886;SDS011;11108;49.988;8.182;2022-12-13T12:31:52;4.10;;;2.93;;
21886;SDS011;11108;49.988;8.182;2022-12-13T12:34:52;3.47;;;3.17;;
21886;SDS011;11108;49.988;8.182;2022-12-13T12:37:12;3.53;;;3.00;;
21886;SDS011;11108;49.988;8.182;2022-12-13T12:54:55;3.23;;;2.93;;
21886;SDS011;11108;49.988;8.182;2022-12-13T13:00:12;4.60;;;3.10;;
21886;SDS011;11108;49.988;8.182;2022-12-13T13:05:25;3.90;;;3.03;;
21886;SDS011;11108;49.988;8.182;2022-12-13T13:07:53;3.67;;;3.20;;
21886;SDS011;11108;49.988;8.182;2022-12-13T13:10:20;4.00;;;3.23;;
21886;SDS011;11108;49.988;8.182;2022-12-13T13:12:46;3.23;;;2.93;;
21886;SDS011;11108;49.988;8.182;2022-12-13T13:15:41;3.13;;;2.83;;
21886;SDS011;11108;49.988;8.182;2022-12-13T13:18:03;3.83;;;3.00;;
21886;SDS011;11108;49.988;8.182;2022-12-13T13:20:28;3.03;;;2.73;;
21886;SDS011;11108;49.988;8.182;2022-12-13T13:22:54;3.03;;;2.83;;
21886;SDS011;11108;49.988;8.182;2022-12-13T13:25:29;3.20;;;2.90;;
21886;SDS011;11108;49.988;8.182;2022-12-13T13:27:59;3.43;;;3.13;;
21886;SDS011;11108;49.988;8.182;2022-12-13T13:30:25;2.90;;;2.73;;
21886;SDS011;11108;49.988;8.182;2022-12-13T13:32:52;3.13;;;2.93;;
21886;SDS011;11108;49.988;8.182;2022-12-13T13:37:52;3.60;;;3.13;;
21886;SDS011;11108;49.988;8.182;2022-12-13T13:40:25;4.10;;;3.70;;
21886;SDS011;11108;49.988;8.182;2022-12-13T13:43:01;3.80;;;3.50;;
21886;SDS011;11108;49.988;8.182;2022-12-13T13:45:26;3.20;;;2.90;;
21886;SDS011;11108;49.988;8.182;2022-12-13T13:55:58;3.40;;;3.10;;
21886;SDS011;11108;49.988;8.182;2022-12-13T14:19:31;4.03;;;3.70;;
21886;SDS011;11108;49.988;8.182;2022-12-13T14:24:34;3.43;;;3.17;;
21886;SDS011;11108;49.988;8.182;2022-12-13T14:27:15;3.10;;;2.70;;
21886;SDS011;11108;49.988;8.182;2022-12-13T14:29:43;3.37;;;3.07;;
21886;SDS011;11108;49.988;8.182;2022-12-13T14:32:09;3.97;;;3.57;;
21886;SDS011;11108;49.988;8.182;2022-12-13T14:34:42;3.60;;;3.30;;
21886;SDS011;11108;49.988;8.182;2022-12-13T14:37:19;5.97;;;3.63;;
21886;SDS011;11108;49.988;8.182;2022-12-13T14:39:45;3.47;;;3.17;;
21886;SDS011;11108;49.988;8.182;2022-12-13T14:42:20;4.00;;;3.60;;
21886;SDS011;11108;49.988;8.182;2022-12-13T14:44:46;6.00;;;3.30;;
21886;SDS011;11108;49.988;8.182;2022-12-13T14:47:14;5.57;;;3.40;;
21886;SDS011;11108;49.988;8.182;2022-12-13T14:49:41;5.57;;;3.40;;
21886;SDS011;11108;49.988;8.182;2022-12-13T14:52:08;3.40;;;3.10;;
21886;SDS011;11108;49.988;8.182;2022-12-13T14:54:44;3.70;;;2.93;;
21886;SDS011;11108;49.988;8.182;2022-12-13T14:57:14;4.80;;;3.63;;
21886;SDS011;11108;49.988;8.182;2022-12-13T14:59:43;3.03;;;2.83;;
21886;SDS011;11108;49.988;8.182;2022-12-13T15:02:12;3.17;;;2.90;;
21886;SDS011;11108;49.988;8.182;2022-12-13T15:04:38;3.93;;;3.27;;
21886;SDS011;11108;49.988;8.182;2022-12-13T15:07:26;3.13;;;2.70;;
21886;SDS011;11108;49.988;8.182;2022-12-13T15:09:54;4.60;;;3.03;;
21886;SDS011;11108;49.988;8.182;2022-12-13T15:12:20;4.73;;;3.13;;
21886;SDS011;11108;49.988;8.182;2022-12-13T15:14:47;3.30;;;3.00;;
21886;SDS011;11108;49.988;8.182;2022-12-13T15:22:44;3.50;;;3.20;;
21886;SDS011;11108;49.988;8.182;2022-12-13T15:25:11;4.70;;;3.57;;
21886;SDS011;11108;49.988;8.182;2022-12-13T15:27:37;5.13;;;3.57;;
21886;SDS011;11108;49.988;8.182;2022-12-13T15:30:02;4.77;;;3.30;;
21886;SDS011;11108;49.988;8.182;2022-12-13T15:32:28;4.40;;;3.40;;
21886;SDS011;11108;49.988;8.182;2022-12-13T15:34:53;4.47;;;3.20;;
21886;SDS011;11108;49.988;8.182;2022-12-13T15:37:28;3.63;;;3.30;;
21886;SDS011;11108;49.988;8.182;2022-12-13T15:39:56;6.00;;;3.33;;
21886;SDS011;11108;49.988;8.182;2022-12-13T15:42:32;3.33;;;3.03;;
21886;SDS011;11108;49.988;8.182;2022-12-13T15:45:02;5.50;;;3.37;;
21886;SDS011;11108;49.988;8.182;2022-12-13T15:47:27;3.40;;;3.10;;
21886;SDS011;11108;49.988;8.182;2022-12-13T15:49:54;3.43;;;3.00;;
21886;SDS011;11108;49.988;8.182;2022-12-13T15:52:31;3.93;;;3.67;;
21886;SDS011;11108;49.988;8.182;2022-12-13T15:57:26;3.80;;;3.20;;
21886;SDS011;11108;49.988;8.182;2022-12-13T16:00:38;4.10;;;2.70;;
21886;SDS011;11108;49.988;8.182;2022-12-13T16:02:47;4.40;;;3.23;;
21886;SDS011;11108;49.988;8.182;2022-12-13T16:05:17;2.90;;;2.70;;
21886;SDS011;11108;49.988;8.182;2022-12-13T16:07:47;3.17;;;2.90;;
21886;SDS011;11108;49.988;8.182;2022-12-13T16:10:15;3.87;;;3.17;;
21886;SDS011;11108;49.988;8.182;2022-12-13T16:12:42;4.27;;;3.03;;
21886;SDS011;11108;49.988;8.182;2022-12-13T16:15:15;3.80;;;3.50;;
21886;SDS011;11108;49.988;8.182;2022-12-13T16:17:41;3.77;;;3.20;;
21886;SDS011;11108;49.988;8.182;2022-12-13T16:20:09;3.40;;;3.10;;
21886;SDS011;11108;49.988;8.182;2022-12-13T16:22:36;3.70;;;3.07;;
21886;SDS011;11108;49.988;8.182;2022-12-13T16:25:02;3.13;;;2.83;;
21886;SDS011;11108;49.988;8.182;2022-12-13T16:27:28;3.53;;;3.23;;
21886;SDS011;11108;49.988;8.182;2022-12-13T16:29:53;2.90;;;2.70;;
21886;SDS011;11108;49.988;8.182;2022-12-13T16:32:18;3.70;;;3.40;;
21886;SDS011;11108;49.988;8.182;2022-12-13T16:34:43;3.90;;;3.47;;
21886;SDS011;11108;49.988;8.182;2022-12-13T16:37:08;3.30;;;2.83;;
21886;SDS011;11108;49.988;8.182;2022-12-13T16:39:34;7.47;;;2.90;;
21886;SDS011;11108;49.988;8.182;2022-12-13T16:42:00;3.53;;;3.23;;
21886;SDS011;11108;49.988;8.182;2022-12-13T16:44:27;3.57;;;3.00;;
21886;SDS011;11108;49.988;8.182;2022-12-13T16:46:56;2.93;;;2.73;;
21886;SDS011;11108;49.988;8.182;2022-12-13T16:49:25;4.67;;;3.13;;
21886;SDS011;11108;49.988;8.182;2022-12-13T16:51:51;3.33;;;3.03;;